createdAt,value
2023-05-18T00:00:01.360Z,997.7358
2023-05-18T00:01:01.842Z,997.7571
2023-05-18T00:02:02.337Z,997.7926
2023-05-18T00:03:01.867Z,997.7217
2023-05-18T00:04:03.983Z,997.7857
2023-05-18T00:05:01.691Z,997.814
2023-05-18T00:06:02.174Z,997.9175
2023-05-18T00:07:01.599Z,997.7076
2023-05-18T00:08:02.110Z,997.807
2023-05-18T00:09:01.518Z,997.8963
2023-05-18T00:10:02.131Z,997.7362
2023-05-18T00:11:01.505Z,997.7718
2023-05-18T00:12:01.990Z,997.807
2023-05-18T00:13:03.105Z,997.7502
2023-05-18T00:14:01.909Z,997.8142
2023-05-18T00:15:03.086Z,997.7575
2023-05-18T00:16:01.912Z,997.8963
2023-05-18T00:17:03.906Z,997.708
2023-05-18T00:18:03.498Z,997.932
2023-05-18T00:19:02.268Z,997.779
2023-05-18T00:20:01.730Z,997.8003
2023-05-18T00:21:02.386Z,997.779
2023-05-18T00:22:01.926Z,997.8782
2023-05-18T00:23:01.353Z,997.8003
2023-05-18T00:24:01.829Z,997.8641
2023-05-18T00:26:01.797Z,997.8967
2023-05-18T00:27:03.906Z,997.8073
2023-05-18T00:28:01.820Z,997.7649
2023-05-18T00:29:03.905Z,997.7649
2023-05-18T00:30:03.347Z,997.7295
2023-05-18T00:31:03.845Z,997.7436
2023-05-18T00:32:01.637Z,997.7577
2023-05-18T00:33:02.216Z,997.6939
2023-05-18T00:34:01.514Z,997.7719
2023-05-18T00:35:02.006Z,997.7649
2023-05-18T00:36:03.141Z,997.7579
2023-05-18T00:37:01.924Z,997.8713
2023-05-18T00:38:03.034Z,997.7579
2023-05-18T00:39:01.846Z,997.8359
2023-05-18T00:41:01.783Z,998.0174
2023-05-18T00:42:02.261Z,997.7225
2023-05-18T00:43:01.762Z,998.0528
2023-05-18T00:44:03.848Z,997.6304
2023-05-18T00:45:03.364Z,997.8713
2023-05-18T00:46:02.238Z,998.1236
2023-05-18T00:47:01.631Z,998.1236
2023-05-18T00:48:02.181Z,997.7155
2023-05-18T00:49:01.530Z,997.8783
2023-05-18T00:50:01.997Z,997.6871
2023-05-18T00:51:01.439Z,998.0174
2023-05-18T00:52:01.972Z,998.0174
2023-05-18T00:53:01.367Z,998.0174
2023-05-18T00:54:01.836Z,997.9112
2023-05-18T00:55:01.350Z,997.8858
2023-05-18T00:56:03.446Z,997.9112
2023-05-18T00:57:03.949Z,997.9325
2023-05-18T00:58:03.359Z,997.9396
2023-05-18T00:59:02.252Z,997.8433
2023-05-18T01:00:01.684Z,998.0601
2023-05-18T01:01:03.873Z,998.039
2023-05-18T01:02:03.339Z,997.9469
2023-05-18T01:03:02.230Z,998.046
2023-05-18T01:04:01.505Z,997.8861
2023-05-18T01:05:02.012Z,997.9823
2023-05-18T01:06:01.545Z,997.9823
2023-05-18T01:07:02.016Z,998.0036
2023-05-18T01:08:01.443Z,998.0674
2023-05-18T01:09:03.635Z,998.0534
2023-05-18T01:10:01.358Z,998.0253
2023-05-18T01:11:01.841Z,998.2181
2023-05-18T01:12:02.962Z,997.9897
2023-05-18T01:13:01.763Z,998.0323
2023-05-18T01:14:04.034Z,997.9333
2023-05-18T01:15:01.767Z,998.1103
2023-05-18T01:16:02.270Z,997.9333
2023-05-18T01:17:01.736Z,997.9972
2023-05-18T01:18:03.937Z,998.0258
2023-05-18T01:19:01.659Z,997.9691
2023-05-18T01:20:03.775Z,997.9478
2023-05-18T01:21:01.518Z,998.0185
2023-05-18T01:22:03.677Z,997.9478
2023-05-18T01:23:03.111Z,998.1037
2023-05-18T01:24:01.920Z,998.118
2023-05-18T01:25:01.447Z,998.0613
2023-05-18T01:26:01.946Z,997.9906
2023-05-18T01:27:01.436Z,998.1322
2023-05-18T01:28:03.030Z,998.0472
2023-05-18T01:29:01.835Z,997.9056
2023-05-18T01:30:04.017Z,998.1037
2023-05-18T01:31:01.899Z,998.0328
2023-05-18T01:32:02.230Z,998.0752
2023-05-18T01:33:01.710Z,998.0682
2023-05-18T01:34:02.161Z,998.0399
2023-05-18T01:35:01.595Z,998.1037
2023-05-18T01:36:02.100Z,998.0754
2023-05-18T01:37:01.605Z,998.2471
2023-05-18T01:38:02.081Z,998.2117
2023-05-18T01:39:03.294Z,998.2613
2023-05-18T01:40:01.997Z,998.2189
2023-05-18T01:41:01.467Z,998.2472
2023-05-18T01:42:01.927Z,998.1837
2023-05-18T01:43:01.366Z,998.1908
2023-05-18T01:44:01.861Z,998.2192
2023-05-18T01:45:01.368Z,998.2192
2023-05-18T01:46:01.832Z,998.3863
2023-05-18T01:47:02.276Z,998.1044
2023-05-18T01:48:01.877Z,998.2266
2023-05-18T01:49:02.199Z,998.2945
2023-05-18T01:50:01.738Z,998.1702
2023-05-18T01:51:02.167Z,998.2662
2023-05-18T01:52:01.601Z,998.1048
2023-05-18T01:53:02.080Z,998.2056
2023-05-18T01:54:03.217Z,998.1262
2023-05-18T01:55:02.006Z,998.105
2023-05-18T01:56:01.534Z,998.098
2023-05-18T01:57:01.922Z,998.1918
2023-05-18T01:58:01.438Z,997.992
2023-05-18T01:59:01.934Z,998.1706
2023-05-18T02:00:03.070Z,998.1052
2023-05-18T02:01:01.844Z,998.0841
2023-05-18T02:02:02.363Z,998.2416
2023-05-18T02:03:01.842Z,998.185
2023-05-18T02:04:03.998Z,998.1779
2023-05-18T02:05:01.698Z,998.1709
2023-05-18T02:06:02.176Z,998.3307
2023-05-18T02:07:01.602Z,998.0845
2023-05-18T02:08:02.087Z,998.1851
2023-05-18T02:09:01.573Z,998.2277
2023-05-18T02:10:02.001Z,998.0916
2023-05-18T02:11:01.521Z,998.3027
2023-05-18T02:12:02.027Z,998.1995
2023-05-18T02:13:01.438Z,998.2886
2023-05-18T02:14:01.931Z,998.099
2023-05-18T02:15:01.361Z,998.2606
2023-05-18T02:16:01.872Z,998.3172
2023-05-18T02:18:01.828Z,998.0287
2023-05-18T02:19:02.324Z,998.2606
2023-05-18T02:20:03.433Z,997.9577
2023-05-18T02:21:02.163Z,998.1999
2023-05-18T02:22:03.341Z,998.2068
2023-05-18T02:23:02.173Z,998.2492
2023-05-18T02:24:01.591Z,998.0565
2023-05-18T02:25:02.092Z,998.3027
2023-05-18T02:26:01.520Z,998.1713
2023-05-18T02:27:02.017Z,998.1996
2023-05-18T02:28:03.244Z,998.0423
2023-05-18T02:29:01.993Z,998.0847
2023-05-18T02:30:01.436Z,998.1343
2023-05-18T02:31:01.919Z,998.106
2023-05-18T02:32:01.369Z,998.0778
2023-05-18T02:33:01.852Z,998.31
2023-05-18T02:34:01.504Z,998.2281
2023-05-18T02:35:01.909Z,998.1858
2023-05-18T02:36:01.429Z,998.1275
2023-05-18T02:37:01.829Z,998.0709
2023-05-18T02:38:03.017Z,998.2606
2023-05-18T02:39:01.860Z,998.2889
2023-05-18T02:40:02.331Z,998.2606
2023-05-18T02:41:01.758Z,997.9722
2023-05-18T02:42:03.905Z,998.0642
2023-05-18T02:43:01.693Z,998.3953
2023-05-18T02:44:03.854Z,998.2894
2023-05-18T02:45:01.613Z,998.2217
2023-05-18T02:46:03.823Z,998.0788
2023-05-18T02:47:01.525Z,998.1794
2023-05-18T02:48:02.015Z,998.2076
2023-05-18T02:49:03.214Z,998.2217
2023-05-18T02:50:03.684Z,998.3177
2023-05-18T02:51:01.425Z,998.2964
2023-05-18T02:52:01.909Z,998.3953
2023-05-18T02:53:01.383Z,997.9936
2023-05-18T02:54:01.828Z,998.36
2023-05-18T02:55:02.316Z,998.2964
2023-05-18T02:56:01.760Z,998.0431
2023-05-18T02:57:03.952Z,998.2894
2023-05-18T02:58:01.696Z,998.1934
2023-05-18T02:59:02.192Z,998.1281
2023-05-18T03:00:03.274Z,998.1936
2023-05-18T03:01:02.110Z,998.0789
2023-05-18T03:02:03.234Z,998.1003
2023-05-18T03:03:03.796Z,998.29
2023-05-18T03:04:01.536Z,998.194
2023-05-18T03:05:02.033Z,998.3255
2023-05-18T03:06:01.434Z,998.1942
2023-05-18T03:07:01.915Z,998.1802
2023-05-18T03:08:03.049Z,998.1291
2023-05-18T03:09:01.860Z,998.2651
2023-05-18T03:10:04.067Z,998.3399
2023-05-18T03:11:03.522Z,998.1364
2023-05-18T03:12:02.240Z,998.1366
2023-05-18T03:13:01.696Z,998.2161
2023-05-18T03:14:02.153Z,998.4109
2023-05-18T03:15:03.383Z,998.1808
2023-05-18T03:16:03.826Z,998.195
2023-05-18T03:17:01.796Z,998.291
2023-05-18T03:18:02.143Z,998.3405
2023-05-18T03:19:01.522Z,998.2234
2023-05-18T03:20:02.043Z,998.2164
2023-05-18T03:21:01.456Z,998.3194
2023-05-18T03:22:01.905Z,998.2912
2023-05-18T03:23:01.355Z,998.2518
2023-05-18T03:24:01.842Z,998.1812
2023-05-18T03:25:01.346Z,998.3549
2023-05-18T03:26:01.865Z,998.2844
2023-05-18T03:27:02.388Z,998.3621
2023-05-18T03:28:01.763Z,998.4398
2023-05-18T03:29:02.283Z,998.3551
2023-05-18T03:30:01.684Z,998.4822
2023-05-18T03:31:02.204Z,998.2563
2023-05-18T03:32:01.675Z,998.3693
2023-05-18T03:33:03.930Z,998.3693
2023-05-18T03:34:01.590Z,998.3693
2023-05-18T03:35:02.088Z,998.4612
2023-05-18T03:36:01.546Z,998.4259
2023-05-18T03:37:02.023Z,998.2565
2023-05-18T03:38:03.186Z,998.4259
2023-05-18T03:39:03.585Z,998.2565
2023-05-18T03:40:01.686Z,998.4259
2023-05-18T03:41:03.860Z,998.6165
2023-05-18T03:42:01.647Z,998.4683
2023-05-18T03:43:02.082Z,998.4259
2023-05-18T03:44:01.515Z,998.4824
2023-05-18T03:45:01.992Z,998.4825
2023-05-18T03:46:01.556Z,998.3837
2023-05-18T03:47:01.937Z,998.5249
2023-05-18T03:48:01.444Z,998.7014
2023-05-18T03:49:01.923Z,998.4263
2023-05-18T03:50:01.463Z,998.5534
2023-05-18T03:51:01.830Z,998.5323
2023-05-18T03:52:02.339Z,998.5675
2023-05-18T03:53:03.437Z,998.5958
2023-05-18T03:54:02.233Z,998.5181
2023-05-18T03:55:01.698Z,998.5323
2023-05-18T03:56:02.155Z,998.4476
2023-05-18T03:57:03.373Z,998.4829
2023-05-18T03:58:02.166Z,998.5322
2023-05-18T03:59:01.609Z,998.511
2023-05-18T04:00:02.136Z,998.4405
2023-05-18T04:01:01.547Z,998.7014
2023-05-18T04:02:03.737Z,998.4263
2023-05-18T04:03:01.504Z,998.5886
2023-05-18T04:04:02.000Z,998.6733
2023-05-18T04:05:01.452Z,998.6379
2023-05-18T04:06:03.596Z,998.6662
2023-05-18T04:07:01.350Z,998.5039
2023-05-18T04:08:01.874Z,998.511
2023-05-18T04:09:02.317Z,998.5039
2023-05-18T04:10:03.436Z,998.4969
2023-05-18T04:11:03.903Z,998.5181
2023-05-18T04:12:01.679Z,998.4194
2023-05-18T04:13:02.196Z,998.6733
2023-05-18T04:14:03.355Z,998.5674
2023-05-18T04:15:02.086Z,998.5886
2023-05-18T04:19:02.200Z,998.6096
2023-05-18T04:20:01.433Z,998.6943
2023-05-18T04:21:01.927Z,998.6943
2023-05-18T04:22:01.429Z,998.7507
2023-05-18T04:23:03.529Z,998.7013
2023-05-18T04:24:03.057Z,998.7366
2023-05-18T04:25:01.852Z,998.6236
2023-05-18T04:27:01.796Z,998.8988
2023-05-18T04:28:04.002Z,998.8211
2023-05-18T04:29:03.447Z,998.6234
2023-05-18T04:30:02.256Z,998.7081
2023-05-18T04:31:01.691Z,998.8139
2023-05-18T04:32:02.250Z,998.8068
2023-05-18T04:33:03.676Z,998.8139
2023-05-18T04:34:02.243Z,998.7221
2023-05-18T04:35:03.357Z,998.7362
2023-05-18T04:36:02.164Z,998.7926
2023-05-18T04:37:01.698Z,998.8774
2023-05-18T04:38:02.184Z,998.8278
2023-05-18T04:39:03.287Z,998.7077
2023-05-18T04:40:03.754Z,998.743
2023-05-18T04:41:01.607Z,998.6865
2023-05-18T04:42:02.093Z,998.8347
2023-05-18T04:43:01.540Z,998.644
2023-05-18T04:44:02.185Z,998.6298
2023-05-18T04:45:01.723Z,998.9406
2023-05-18T04:46:02.216Z,998.6438
2023-05-18T04:47:01.608Z,998.8486
2023-05-18T04:48:02.236Z,998.7991
2023-05-18T04:49:01.527Z,998.785
2023-05-18T04:50:03.721Z,998.9827
2023-05-18T04:51:01.462Z,998.6646
2023-05-18T04:52:03.599Z,998.7988
2023-05-18T04:53:01.443Z,998.8482
2023-05-18T04:54:01.921Z,998.7563
2023-05-18T04:55:01.365Z,998.8622
2023-05-18T04:56:01.886Z,998.8268
2023-05-18T04:58:01.771Z,998.6217
2023-05-18T04:59:03.922Z,998.8125
2023-05-18T05:00:01.793Z,998.7559
2023-05-18T05:01:02.346Z,998.9679
2023-05-18T05:02:02.789Z,998.8405
2023-05-18T05:03:02.531Z,998.897
2023-05-18T05:04:02.792Z,998.8474
2023-05-18T05:05:01.532Z,998.7128
2023-05-18T05:06:02.099Z,998.7835
2023-05-18T05:07:03.128Z,998.8118
2023-05-18T05:08:01.926Z,998.8894
2023-05-18T05:09:01.463Z,998.6487
2023-05-18T05:10:01.998Z,998.8042
2023-05-18T05:11:01.479Z,998.9952
2023-05-18T05:12:01.938Z,998.9313
2023-05-18T05:13:01.374Z,998.9029
2023-05-18T05:14:01.855Z,998.761
2023-05-18T05:15:01.375Z,998.9945
2023-05-18T05:16:01.945Z,998.9022
2023-05-18T05:17:02.335Z,998.7815
2023-05-18T05:18:01.780Z,998.8097
2023-05-18T05:19:02.480Z,999.0649
2023-05-18T05:20:01.767Z,998.923
2023-05-18T05:21:02.268Z,998.8022
2023-05-18T05:22:01.759Z,998.8304
2023-05-18T05:23:03.991Z,998.8941
2023-05-18T05:24:01.703Z,998.9364
2023-05-18T05:25:03.849Z,999.0214
2023-05-18T05:26:01.705Z,998.865
2023-05-18T05:27:02.159Z,998.8222
2023-05-18T05:28:01.686Z,999.014
2023-05-18T05:29:02.154Z,999.0921
2023-05-18T05:30:01.655Z,998.8007
2023-05-18T05:31:02.151Z,998.9214
2023-05-18T05:32:01.759Z,998.8289
2023-05-18T05:33:03.807Z,998.7932
2023-05-18T05:34:01.534Z,998.8499
2023-05-18T05:35:03.695Z,998.9565
2023-05-18T05:36:03.219Z,998.7999
2023-05-18T05:37:02.035Z,998.9208
2023-05-18T05:38:01.458Z,998.949
2023-05-18T05:39:02.007Z,998.8064
2023-05-18T05:40:01.450Z,998.9272
2023-05-18T05:41:01.926Z,998.8558
2023-05-18T05:42:01.450Z,998.9623
2023-05-18T05:43:03.604Z,998.9337
2023-05-18T05:44:03.069Z,999.0334
2023-05-18T05:45:01.823Z,999.1401
2023-05-18T05:46:01.364Z,998.8264
2023-05-18T05:47:01.862Z,998.8548
2023-05-18T05:48:01.409Z,998.8331
2023-05-18T05:49:02.146Z,998.9898
2023-05-18T05:50:01.455Z,998.8326
2023-05-18T05:51:01.954Z,999.0251
2023-05-18T05:52:01.453Z,998.8827
2023-05-18T05:53:01.933Z,998.9111
2023-05-18T05:54:03.034Z,998.8324
2023-05-18T05:55:01.860Z,999.0464
2023-05-18T05:56:03.910Z,999.0465
2023-05-18T05:57:01.756Z,999.0537
2023-05-18T05:58:03.850Z,998.9182
2023-05-18T05:59:03.361Z,998.8966
2023-05-18T06:00:02.182Z,998.9107
2023-05-18T06:01:01.605Z,998.9035
2023-05-18T06:02:02.165Z,999.0032
2023-05-18T06:03:01.535Z,998.8318
2023-05-18T06:04:02.042Z,998.9387
2023-05-18T06:05:01.465Z,998.8317
2023-05-18T06:06:01.929Z,998.8816
2023-05-18T06:07:01.354Z,998.7458
2023-05-18T06:08:01.852Z,998.8741
2023-05-18T06:09:01.355Z,998.8741
2023-05-18T06:10:01.779Z,998.8741
2023-05-18T06:11:02.260Z,998.8741
2023-05-18T06:12:01.829Z,998.8096
2023-05-18T06:13:02.247Z,998.9237
2023-05-18T06:14:01.672Z,998.7737
2023-05-18T06:15:02.161Z,998.781
2023-05-18T06:16:03.372Z,998.9239
2023-05-18T06:17:02.129Z,998.8591
2023-05-18T06:18:01.561Z,999.109
2023-05-18T06:19:02.056Z,998.8727
2023-05-18T06:20:01.523Z,998.9156
2023-05-18T06:21:03.703Z,998.9941
2023-05-18T06:22:01.443Z,998.9367
2023-05-18T06:23:01.921Z,999.001
2023-05-18T06:24:03.036Z,998.9293
2023-05-18T06:25:01.842Z,998.8431
2023-05-18T06:26:02.307Z,999.0434
2023-05-18T06:27:01.787Z,998.9431
2023-05-18T06:28:02.245Z,998.8786
2023-05-18T06:29:01.675Z,998.8931
2023-05-18T06:30:02.162Z,998.936
2023-05-18T06:31:03.279Z,998.9647
2023-05-18T06:32:02.130Z,999.0581
2023-05-18T06:33:03.226Z,999.0152
2023-05-18T06:34:01.998Z,999.1369
2023-05-18T06:35:01.441Z,999.1224
2023-05-18T06:36:01.934Z,998.8717
2023-05-18T06:37:01.467Z,999.1079
2023-05-18T06:38:03.595Z,999.2297
2023-05-18T06:39:01.355Z,999.0718
2023-05-18T06:40:03.467Z,999.1791
2023-05-18T06:41:03.920Z,999.0353
2023-05-18T06:42:01.788Z,999.2217
2023-05-18T06:43:02.247Z,999.1357
2023-05-18T06:44:01.689Z,999.0566
2023-05-18T06:45:02.172Z,999.0133
2023-05-18T06:46:03.356Z,999.1279
2023-05-18T06:47:02.110Z,999.1708
2023-05-18T06:48:01.660Z,999.1563
2023-05-18T06:49:03.687Z,999.2711
2023-05-18T06:50:01.550Z,999.1849
2023-05-18T06:51:02.019Z,998.9547
2023-05-18T06:52:01.441Z,999.0696
2023-05-18T06:53:02.015Z,999.0985
2023-05-18T06:54:04.042Z,999.0483
2023-05-18T06:55:01.701Z,999.1922
2023-05-18T06:56:02.191Z,999.1059
2023-05-18T06:57:03.291Z,999.1994
2023-05-18T06:58:02.119Z,999.0123
2023-05-18T06:59:01.519Z,998.8896
2023-05-18T07:00:02.084Z,999.1268
2023-05-18T07:01:01.458Z,999.0546
2023-05-18T07:02:02.047Z,998.9754
2023-05-18T07:03:01.622Z,998.9682
2023-05-18T07:04:01.882Z,999.0907
2023-05-18T07:05:01.395Z,999.0548
2023-05-18T07:06:01.842Z,999.1194
2023-05-18T07:07:02.247Z,998.8528
2023-05-18T07:08:01.798Z,998.9607
2023-05-18T07:09:02.251Z,999.0902
2023-05-18T07:10:01.716Z,999.0039
2023-05-18T07:11:02.192Z,998.9176
2023-05-18T07:12:01.666Z,998.9464
2023-05-18T07:13:02.085Z,998.9174
2023-05-18T07:14:01.606Z,999.0253
2023-05-18T07:15:03.852Z,998.9821
2023-05-18T07:16:03.263Z,998.9603
2023-05-18T07:17:02.002Z,999.0755
2023-05-18T07:18:01.527Z,999.0249
2023-05-18T07:19:01.975Z,999.0537
2023-05-18T07:20:01.474Z,998.9745
2023-05-18T07:21:01.936Z,999.0249
2023-05-18T07:22:03.057Z,999.133
2023-05-18T07:23:01.854Z,998.9745
2023-05-18T07:24:01.363Z,998.9817
2023-05-18T07:25:02.112Z,999.0537
2023-05-18T07:26:02.321Z,998.8596
2023-05-18T07:27:03.454Z,999.0542
2023-05-18T07:28:02.241Z,998.9822
2023-05-18T07:29:01.675Z,998.9821
2023-05-18T07:30:02.170Z,999.0036
2023-05-18T07:31:01.694Z,999.155
2023-05-18T07:32:03.882Z,999.0614
2023-05-18T07:33:01.742Z,998.9394
2023-05-18T07:34:03.759Z,998.8607
2023-05-18T07:35:01.510Z,999.0479
2023-05-18T07:36:02.075Z,998.9116
2023-05-18T07:37:01.536Z,998.969
2023-05-18T07:38:01.989Z,999.1485
2023-05-18T07:39:01.438Z,998.9615
2023-05-18T07:40:03.668Z,999.0334
2023-05-18T07:41:01.432Z,999.1195
2023-05-18T07:42:02.001Z,998.9896
2023-05-18T07:43:01.368Z,998.9247
2023-05-18T07:44:01.916Z,999.0975
2023-05-18T07:45:03.027Z,999.0686
2023-05-18T07:46:01.846Z,999.0112
2023-05-18T07:47:02.490Z,998.9463
2023-05-18T07:48:01.880Z,999.1694
2023-05-18T07:49:02.310Z,999.0755
2023-05-18T07:50:01.763Z,998.9529
2023-05-18T07:51:02.231Z,998.9815
2023-05-18T07:52:01.785Z,998.8735
2023-05-18T07:53:02.227Z,999.1042
2023-05-18T07:54:03.491Z,998.9814
2023-05-18T07:55:02.146Z,999.0535
2023-05-18T07:56:01.684Z,998.9381
2023-05-18T07:57:02.185Z,998.8946
2023-05-18T07:58:01.592Z,998.9308
2023-05-18T07:59:02.091Z,999.1042
2023-05-18T08:00:01.606Z,999.1258
2023-05-18T08:01:01.786Z,998.8949
2023-05-18T08:02:02.388Z,998.9235
2023-05-18T08:03:01.839Z,998.9307
2023-05-18T08:04:02.332Z,998.9811
2023-05-18T08:05:03.356Z,998.9377
2023-05-18T08:06:03.856Z,998.887
2023-05-18T08:07:03.314Z,998.8289
2023-05-18T08:08:03.006Z,998.7568
2023-05-18T08:09:01.519Z,998.836
2023-05-18T08:10:02.008Z,998.8934
2023-05-18T08:11:03.146Z,998.8212
2023-05-18T08:12:02.120Z,998.8934
2023-05-18T08:13:01.380Z,998.9006
2023-05-18T08:14:03.535Z,998.9799
2023-05-18T08:15:01.358Z,998.9076
2023-05-18T08:16:10.972Z,998.8496
2023-05-18T08:17:04.029Z,998.7409
2023-05-18T08:18:01.808Z,998.8489
2023-05-18T08:19:04.000Z,998.9209
2023-05-18T08:20:01.694Z,998.9497
2023-05-18T08:21:02.165Z,998.7687
2023-05-18T08:22:01.713Z,998.848
2023-05-18T08:23:02.197Z,998.9346
2023-05-18T08:24:01.615Z,998.8115
2023-05-18T08:25:02.135Z,999.0216
2023-05-18T08:26:01.530Z,999.152
2023-05-18T08:27:02.257Z,998.9639
2023-05-18T08:28:01.446Z,998.9491
2023-05-18T08:29:01.923Z,999.1227
2023-05-18T08:30:01.486Z,998.8694
2023-05-18T08:31:01.932Z,998.9927
2023-05-18T08:32:01.390Z,998.978
2023-05-18T08:33:03.627Z,998.9781
2023-05-18T08:35:01.791Z,999.0725
2023-05-18T08:36:02.235Z,998.8769
2023-05-18T08:37:03.428Z,999.036
2023-05-18T08:38:05.694Z,999.152
2023-05-18T08:39:01.667Z,999
2023-05-18T08:40:02.201Z,998.9491
2023-05-18T08:41:01.592Z,998.956
2023-05-18T08:42:02.079Z,998.9848
2023-05-18T08:43:03.194Z,999.1221
2023-05-18T08:44:01.989Z,998.9694
2023-05-18T08:45:01.542Z,998.8095
2023-05-18T08:46:01.994Z,998.9833
2023-05-18T08:47:01.431Z,999.201
2023-05-18T08:48:02.080Z,998.8742
2023-05-18T08:49:01.487Z,998.8598
2023-05-18T08:50:01.910Z,998.9618
2023-05-18T08:51:01.349Z,998.8749
2023-05-18T08:52:01.841Z,998.9476
2023-05-18T08:53:02.321Z,998.9624
2023-05-18T08:54:01.763Z,998.9115
2023-05-18T08:55:02.257Z,998.926
2023-05-18T08:56:01.693Z,999.0059
2023-05-18T08:57:02.157Z,998.9114
2023-05-18T08:58:03.345Z,998.9621
2023-05-18T08:59:02.179Z,998.8532
2023-05-18T09:00:01.616Z,998.7951
2023-05-18T09:01:02.070Z,998.7662
2023-05-18T09:02:01.646Z,998.9691
2023-05-18T09:03:03.761Z,998.7806
2023-05-18T09:04:01.517Z,998.8459
2023-05-18T09:05:02.137Z,998.9114
2023-05-18T09:06:01.595Z,998.8031
2023-05-18T09:07:02.067Z,998.8686
2023-05-18T09:08:03.193Z,998.7525
2023-05-18T09:09:02.007Z,998.709
2023-05-18T09:10:01.444Z,998.6575
2023-05-18T09:11:03.619Z,998.9035
2023-05-18T09:12:03.027Z,998.693
2023-05-18T09:13:01.878Z,998.9035
2023-05-18T09:14:02.334Z,998.795
2023-05-18T09:15:03.545Z,998.7879
2023-05-18T09:16:02.263Z,998.6215
2023-05-18T09:17:01.685Z,998.8248
2023-05-18T09:18:02.265Z,998.6943
2023-05-18T09:19:01.654Z,998.68
2023-05-18T09:20:02.084Z,998.5564
2023-05-18T09:21:01.600Z,998.6139
2023-05-18T09:22:02.083Z,998.5987
2023-05-18T09:23:03.225Z,998.7801
2023-05-18T09:24:01.988Z,998.7295
2023-05-18T09:25:01.437Z,998.6208
2023-05-18T09:26:01.904Z,998.6356
2023-05-18T09:27:01.348Z,998.6285
2023-05-18T09:28:01.833Z,998.7663
2023-05-18T09:29:01.287Z,998.6503
2023-05-18T09:30:01.831Z,998.7445
2023-05-18T09:31:02.234Z,998.7372
2023-05-18T09:32:01.831Z,998.6575
2023-05-18T09:33:02.324Z,998.7369
2023-05-18T09:34:01.760Z,998.686
2023-05-18T09:35:02.148Z,998.8454
2023-05-18T09:36:01.599Z,998.729
2023-05-18T09:37:02.077Z,998.6345
2023-05-18T09:38:01.592Z,998.6205
2023-05-18T09:39:02.003Z,998.6063
2023-05-18T09:40:01.543Z,998.6931
2023-05-18T09:41:02.036Z,998.6713
2023-05-18T09:42:01.454Z,998.6855
2023-05-18T09:43:01.920Z,998.5548
2023-05-18T09:44:01.362Z,998.6637
2023-05-18T09:45:01.846Z,998.6566
2023-05-18T09:46:02.321Z,998.7513
2023-05-18T09:47:01.947Z,998.6645
2023-05-18T09:48:02.289Z,998.8243
2023-05-18T09:49:01.680Z,998.7012
2023-05-18T09:50:02.192Z,998.7737
2023-05-18T09:51:01.607Z,998.7663
2023-05-18T09:52:03.789Z,998.8243
2023-05-18T09:53:01.525Z,998.8095
2023-05-18T09:54:02.003Z,998.5918
2023-05-18T09:55:01.528Z,998.7007
2023-05-18T09:56:02.003Z,998.8021
2023-05-18T09:57:10.106Z,998.7515
2023-05-18T09:58:03.641Z,998.9256
2023-05-18T09:59:01.360Z,998.6571
2023-05-18T10:00:01.847Z,998.8531
2023-05-18T10:02:01.814Z,998.715
2023-05-18T10:03:02.275Z,998.7081
2023-05-18T10:04:01.828Z,998.8606
2023-05-18T10:05:02.250Z,998.7953
2023-05-18T10:06:01.678Z,998.5273
2023-05-18T10:07:02.173Z,998.5923
2023-05-18T10:08:01.619Z,998.6645
2023-05-18T10:09:03.779Z,998.6789
2023-05-18T10:10:01.585Z,998.8021
2023-05-18T10:11:02.027Z,998.6933
2023-05-18T10:12:03.119Z,998.6645
2023-05-18T10:13:03.633Z,998.6208
2023-05-18T10:14:03.864Z,998.6571
2023-05-18T10:15:03.276Z,998.6499
2023-05-18T10:16:02.101Z,998.6208
2023-05-18T10:17:15.201Z,998.7587
2023-05-18T10:18:02.124Z,998.6353
2023-05-18T10:19:03.303Z,998.6353
2023-05-18T10:20:03.596Z,998.7879
2023-05-18T10:21:01.483Z,998.8673
2023-05-18T10:22:03.601Z,998.6783
2023-05-18T10:23:01.366Z,998.5112
2023-05-18T10:24:01.837Z,998.5113
2023-05-18T10:26:01.779Z,998.6785
2023-05-18T10:27:02.253Z,998.5695
2023-05-18T10:28:01.796Z,998.5403
2023-05-18T10:29:02.254Z,998.649
2023-05-18T10:30:03.382Z,998.5252
2023-05-18T10:31:03.910Z,998.4595
2023-05-18T10:32:03.801Z,998.4958
2023-05-18T10:33:06.969Z,998.5465
2023-05-18T10:34:01.600Z,998.5316
2023-05-18T10:35:03.780Z,998.5535
2023-05-18T10:36:01.511Z,998.4886
2023-05-18T10:37:02.006Z,998.5249
2023-05-18T10:38:03.208Z,998.5755
2023-05-18T10:39:01.925Z,998.6917
2023-05-18T10:40:01.449Z,998.6844
2023-05-18T10:41:01.961Z,998.481
2023-05-18T10:42:01.361Z,998.6773
2023-05-18T10:43:01.845Z,998.5032
2023-05-18T10:44:02.344Z,998.5178
2023-05-18T10:45:03.440Z,998.5104
2023-05-18T10:46:02.444Z,998.4597
2023-05-18T10:47:01.902Z,998.4526
2023-05-18T10:48:02.312Z,998.4962
2023-05-18T10:49:01.715Z,998.4601
2023-05-18T10:50:02.157Z,998.5328
2023-05-18T10:51:01.840Z,998.54
2023-05-18T10:52:03.761Z,998.402
2023-05-18T10:53:01.618Z,998.4309
2023-05-18T10:54:02.001Z,998.5542
2023-05-18T10:55:03.197Z,998.4231
2023-05-18T10:56:02.084Z,998.605
2023-05-18T10:57:01.438Z,998.6554
2023-05-18T10:58:01.931Z,998.3575
2023-05-18T10:59:01.441Z,998.4515
2023-05-18T11:00:01.928Z,998.5024
2023-05-18T11:01:03.072Z,998.4152
2023-05-18T11:02:04.773Z,998.4223
2023-05-18T11:03:03.291Z,998.4227
2023-05-18T11:04:02.625Z,998.2845
2023-05-18T11:05:02.463Z,998.4007
2023-05-18T11:06:01.783Z,998.4227
2023-05-18T11:07:02.296Z,998.4664
2023-05-18T11:08:01.850Z,998.4812
2023-05-18T11:09:03.939Z,998.5029
2023-05-18T11:10:01.806Z,998.4449
2023-05-18T11:11:02.265Z,998.4523
2023-05-18T11:12:01.803Z,998.4156
2023-05-18T11:13:03.928Z,998.466
2023-05-18T11:14:02.049Z,998.5023
2023-05-18T11:15:02.250Z,998.3348
2023-05-18T11:16:01.839Z,998.4143
2023-05-18T11:17:02.252Z,998.2643
2023-05-18T11:18:01.882Z,998.2422
2023-05-18T11:19:01.752Z,998.4507
2023-05-18T11:20:02.219Z,998.3708
2023-05-18T11:21:01.602Z,998.3129
2023-05-18T11:22:02.098Z,998.3129
2023-05-18T11:23:01.535Z,998.2983
2023-05-18T11:24:01.993Z,998.2498
2023-05-18T11:25:01.551Z,998.298
2023-05-18T11:26:02.012Z,998.2569
2023-05-18T11:27:03.123Z,998.3778
2023-05-18T11:28:03.661Z,998.3924
2023-05-18T11:29:01.371Z,998.2352
2023-05-18T11:30:14.951Z,998.3271
2023-05-18T11:31:02.318Z,998.3416
2023-05-18T11:32:02.617Z,998.3708
2023-05-18T11:33:02.388Z,998.3342
2023-05-18T11:34:03.354Z,998.3342
2023-05-18T11:35:02.178Z,998.4506
2023-05-18T11:36:01.718Z,998.4215
2023-05-18T11:37:02.147Z,998.4436
2023-05-18T11:38:01.590Z,998.3639
2023-05-18T11:39:02.071Z,998.3497
2023-05-18T11:40:04.992Z,998.2913
2023-05-18T11:41:03.688Z,998.284
2023-05-18T11:42:01.432Z,998.3932
2023-05-18T11:43:01.918Z,998.3502
2023-05-18T11:44:01.429Z,998.5029
2023-05-18T11:45:01.943Z,998.2556
2023-05-18T11:46:03.065Z,998.2773
2023-05-18T11:47:01.865Z,998.4587
2023-05-18T11:48:04.040Z,998.2987
2023-05-18T11:49:01.765Z,998.4148
2023-05-18T11:50:02.247Z,998.4436
2023-05-18T11:51:03.372Z,998.3633
2023-05-18T11:52:02.169Z,998.3999
2023-05-18T11:53:01.594Z,998.298
2023-05-18T11:54:02.100Z,998.3924
2023-05-18T11:55:01.523Z,998.363
2023-05-18T11:56:01.998Z,998.2615
2023-05-18T11:57:01.537Z,998.3926